createdAt,value
2018-09-21T00:01:25.689Z,64.80
2018-09-21T00:03:59.462Z,64.80
2018-09-21T00:06:27.992Z,64.90
2018-09-21T00:08:56.378Z,64.90
2018-09-21T00:11:24.945Z,65.00
2018-09-21T00:13:53.386Z,65.00
2018-09-21T00:16:21.921Z,65.00
2018-09-21T00:18:50.662Z,65.40
2018-09-21T00:21:19.498Z,65.10
2018-09-21T00:23:48.336Z,65.10
2018-09-21T00:26:16.732Z,65.20
2018-09-21T00:28:45.381Z,65.20
2018-09-21T00:31:13.805Z,65.20
2018-09-21T00:33:42.336Z,65.30
2018-09-21T00:36:10.825Z,65.30
2018-09-21T00:38:39.338Z,65.40
2018-09-21T00:41:07.775Z,65.40
2018-09-21T00:43:36.274Z,65.40
2018-09-21T00:46:14.209Z,65.50
2018-09-21T00:48:42.640Z,65.50
2018-09-21T00:51:12.240Z,66.40
2018-09-21T00:53:40.735Z,65.70
2018-09-21T00:56:09.593Z,65.80
2018-09-21T00:58:38.008Z,65.80
2018-09-21T01:01:06.450Z,65.80
2018-09-21T01:03:34.912Z,65.90
2018-09-21T01:06:07.558Z,65.90
2018-09-21T01:08:36.399Z,66.00
2018-09-21T01:11:04.837Z,66.00
2018-09-21T01:13:33.435Z,66.00
2018-09-21T01:16:01.878Z,66.00
2018-09-21T01:18:30.385Z,66.20
2018-09-21T01:20:58.902Z,66.20
2018-09-21T01:23:27.318Z,66.30
2018-09-21T01:25:55.760Z,66.40
2018-09-21T01:28:24.719Z,66.40
2018-09-21T01:30:53.241Z,66.40
2018-09-21T01:33:21.779Z,66.50
2018-09-21T01:35:50.140Z,66.60
2018-09-21T01:38:19.127Z,66.60
2018-09-21T01:40:47.528Z,66.60
2018-09-21T01:43:15.942Z,66.70
2018-09-21T01:45:44.467Z,66.80
2018-09-21T01:48:12.900Z,66.80
2018-09-21T01:50:41.285Z,66.90
2018-09-21T01:53:09.684Z,67.00
2018-09-21T01:55:38.182Z,67.00
2018-09-21T01:58:06.639Z,67.10
2018-09-21T02:00:35.002Z,67.20
2018-09-21T02:03:03.818Z,67.20
2018-09-21T02:05:32.402Z,67.30
2018-09-21T02:08:00.810Z,67.40
2018-09-21T02:10:30.873Z,67.40
2018-09-21T02:12:59.280Z,67.50
2018-09-21T02:15:27.655Z,67.50
2018-09-21T02:17:56.264Z,67.50
2018-09-21T02:20:24.616Z,67.50
2018-09-21T02:22:53.039Z,67.60
2018-09-21T02:25:21.537Z,67.60
2018-09-21T02:27:49.911Z,67.70
2018-09-21T02:30:18.321Z,67.70
2018-09-21T02:32:46.717Z,67.70
2018-09-21T02:35:15.228Z,67.80
2018-09-21T02:37:44.111Z,67.80
2018-09-21T02:40:12.566Z,67.80
2018-09-21T02:42:41.037Z,67.90
2018-09-21T02:45:09.551Z,68.50
2018-09-21T02:47:37.920Z,67.90
2018-09-21T02:50:06.448Z,67.90
2018-09-21T02:52:34.854Z,67.90
2018-09-21T02:55:03.323Z,67.90
2018-09-21T02:57:32.041Z,68.00
2018-09-21T03:00:00.508Z,67.70
2018-09-21T03:02:28.918Z,68.10
2018-09-21T03:04:57.355Z,68.10
2018-09-21T03:07:26.367Z,68.00
2018-09-21T03:09:55.320Z,68.00
2018-09-21T03:12:23.783Z,68.00
2018-09-21T03:14:52.759Z,68.10
2018-09-21T03:17:21.108Z,68.20
2018-09-21T03:19:49.628Z,68.20
2018-09-21T03:22:18.143Z,68.20
2018-09-21T03:24:46.627Z,68.30
2018-09-21T03:27:15.245Z,69.10
2018-09-21T03:29:44.470Z,68.40
2018-09-21T03:32:12.831Z,68.40
2018-09-21T03:34:41.264Z,68.40
2018-09-21T03:37:09.744Z,68.40
2018-09-21T03:39:38.155Z,68.40
2018-09-21T03:42:06.712Z,68.40
2018-09-21T03:44:35.121Z,68.40
2018-09-21T03:47:03.521Z,68.50
2018-09-21T03:49:31.983Z,68.50
2018-09-21T03:52:00.876Z,68.50
2018-09-21T03:54:29.286Z,68.50
2018-09-21T03:56:58.153Z,69.30
2018-09-21T03:59:26.628Z,68.60
2018-09-21T04:01:55.079Z,68.70
2018-09-21T04:04:23.543Z,68.70
2018-09-21T04:06:51.993Z,68.70
2018-09-21T04:09:20.394Z,68.70
2018-09-21T04:11:48.825Z,68.70
2018-09-21T04:14:17.188Z,68.70
2018-09-21T04:16:45.896Z,68.70
2018-09-21T04:19:14.237Z,68.60
2018-09-21T04:21:42.842Z,68.70
2018-09-21T04:24:11.856Z,68.80
2018-09-21T04:26:40.714Z,68.70
2018-09-21T04:29:09.078Z,68.80
2018-09-21T04:31:37.541Z,68.80
2018-09-21T04:34:05.990Z,68.90
2018-09-21T04:36:34.368Z,68.90
2018-09-21T04:39:02.994Z,68.90
2018-09-21T04:41:31.359Z,68.90
2018-09-21T04:43:59.821Z,68.90
2018-09-21T04:46:28.272Z,68.90
2018-09-21T04:48:56.703Z,68.90
2018-09-21T04:51:25.342Z,68.90
2018-09-21T04:53:58.774Z,69.10
2018-09-21T04:56:27.146Z,69.00
2018-09-21T04:58:55.589Z,69.00
2018-09-21T05:01:24.079Z,69.00
2018-09-21T05:03:52.509Z,69.00
2018-09-21T05:06:21.110Z,69.00
2018-09-21T05:08:49.585Z,68.90
2018-09-21T05:11:18.043Z,69.00
2018-09-21T05:13:46.607Z,68.80
2018-09-21T05:16:15.055Z,68.90
2018-09-21T05:18:47.261Z,68.90
2018-09-21T05:21:16.084Z,68.90
2018-09-21T05:23:44.604Z,69.00
2018-09-21T05:26:13.665Z,68.90
2018-09-21T05:28:42.371Z,69.00
2018-09-21T05:31:10.791Z,69.00
2018-09-21T05:33:39.210Z,68.90
2018-09-21T05:36:07.640Z,69.10
2018-09-21T05:38:36.071Z,69.00
2018-09-21T05:41:04.558Z,69.10
2018-09-21T05:43:32.890Z,69.10
2018-09-21T05:46:01.390Z,69.10
2018-09-21T05:48:29.695Z,69.10
2018-09-21T05:50:58.192Z,69.10
2018-09-21T05:53:26.482Z,69.20
2018-09-21T05:55:54.812Z,69.20
2018-09-21T05:58:23.093Z,69.20
2018-09-21T06:00:51.420Z,69.30
2018-09-21T06:03:19.724Z,69.40
2018-09-21T06:05:48.124Z,69.40
2018-09-21T06:08:16.426Z,69.50
2018-09-21T06:10:44.762Z,69.70
2018-09-21T06:13:13.193Z,69.70
2018-09-21T06:15:41.785Z,69.50
2018-09-21T06:18:10.170Z,69.70
2018-09-21T06:20:38.497Z,69.50
2018-09-21T06:23:06.919Z,69.80
2018-09-21T06:25:36.761Z,69.60
2018-09-21T06:28:05.102Z,69.60
2018-09-21T06:30:33.702Z,69.60
2018-09-21T06:33:01.984Z,70.00
2018-09-21T06:35:30.339Z,70.00
2018-09-21T06:37:58.622Z,69.80
2018-09-21T06:40:27.367Z,69.60
2018-09-21T06:42:55.988Z,69.70
2018-09-21T06:45:25.939Z,69.50
2018-09-21T06:47:54.391Z,69.80
2018-09-21T06:50:22.806Z,69.50
2018-09-21T06:52:51.205Z,69.90
2018-09-21T06:55:19.565Z,69.70
2018-09-21T06:57:48.079Z,69.60
2018-09-21T07:00:16.416Z,69.60
2018-09-21T07:02:45.120Z,69.40
2018-09-21T07:05:14.738Z,69.50
2018-09-21T07:07:43.361Z,69.60
2018-09-21T07:10:12.253Z,69.50
2018-09-21T07:12:40.843Z,69.40
2018-09-21T07:15:09.768Z,69.30
2018-09-21T07:17:38.250Z,69.30
2018-09-21T07:20:06.696Z,69.20
2018-09-21T07:22:35.300Z,69.20
2018-09-21T07:25:06.533Z,69.10
2018-09-21T07:27:35.273Z,69.00
2018-09-21T07:30:04.736Z,69.00
2018-09-21T07:32:36.145Z,69.00
2018-09-21T07:35:04.813Z,68.90
2018-09-21T07:37:33.752Z,68.80
2018-09-21T07:40:02.975Z,68.80
2018-09-21T07:42:31.487Z,68.70
2018-09-21T07:45:00.211Z,68.60
2018-09-21T07:47:29.585Z,68.60
2018-09-21T07:49:58.183Z,68.60
2018-09-21T07:52:26.661Z,68.50
2018-09-21T07:54:55.251Z,68.50
2018-09-21T07:57:23.774Z,68.40
2018-09-21T07:59:52.607Z,68.30
2018-09-21T08:02:21.131Z,68.30
2018-09-21T08:04:49.717Z,68.20
2018-09-21T08:07:18.243Z,68.20
2018-09-21T08:09:46.715Z,68.20
2018-09-21T08:12:15.587Z,68.10
2018-09-21T08:14:44.061Z,68.10
2018-09-21T08:17:13.054Z,68.10
2018-09-21T08:19:41.769Z,68.00
2018-09-21T08:22:10.270Z,68.00
2018-09-21T08:24:41.934Z,68.80
2018-09-21T08:27:12.146Z,67.90
2018-09-21T08:29:40.871Z,67.90
2018-09-21T08:32:09.402Z,68.00
2018-09-21T08:34:40.466Z,67.90
2018-09-21T08:37:09.108Z,67.90
2018-09-21T08:39:37.632Z,67.80
2018-09-21T08:42:06.202Z,67.90
2018-09-21T08:44:37.363Z,67.80
2018-09-21T08:47:05.956Z,67.70
2018-09-21T08:49:34.591Z,67.70
2018-09-21T08:52:03.324Z,67.80
2018-09-21T08:54:31.829Z,67.80
2018-09-21T08:57:00.453Z,67.90
2018-09-21T08:59:29.037Z,67.80
2018-09-21T09:01:57.679Z,68.10
2018-09-21T09:04:28.704Z,68.40
2018-09-21T09:06:57.355Z,68.50
2018-09-21T09:09:25.938Z,69.30
2018-09-21T09:11:54.655Z,69.50
2018-09-21T09:14:23.198Z,69.00
2018-09-21T09:16:51.826Z,69.30
2018-09-21T09:19:20.478Z,69.30
2018-09-21T09:21:49.137Z,69.60
2018-09-21T09:24:17.705Z,70.70
2018-09-21T09:26:46.291Z,70.30
2018-09-21T09:29:14.868Z,70.60
2018-09-21T09:31:43.611Z,70.90
2018-09-21T09:34:12.171Z,71.60
2018-09-21T09:36:45.106Z,71.80
2018-09-21T09:39:14.230Z,72.40
2018-09-21T09:41:42.853Z,72.30
2018-09-21T09:44:11.550Z,72.50
2018-09-21T09:46:40.142Z,72.60
2018-09-21T09:49:08.782Z,72.80
2018-09-21T09:51:37.296Z,73.00
2018-09-21T09:54:05.907Z,73.10
2018-09-21T09:56:34.447Z,73.10
2018-09-21T09:59:02.997Z,73.50
2018-09-21T10:01:31.515Z,73.70
2018-09-21T10:04:00.111Z,73.80
2018-09-21T10:06:32.389Z,73.70
2018-09-21T10:09:00.922Z,73.80
2018-09-21T10:11:29.438Z,73.60
2018-09-21T10:13:57.915Z,73.80
2018-09-21T10:16:26.412Z,74.20
2018-09-21T10:18:54.988Z,73.80
2018-09-21T10:21:23.546Z,73.80
2018-09-21T10:23:52.168Z,73.90
2018-09-21T10:26:20.710Z,74.10
2018-09-21T10:28:49.311Z,74.00
2018-09-21T10:31:17.766Z,74.10
2018-09-21T10:33:46.863Z,74.10
2018-09-21T10:36:15.254Z,74.50
2018-09-21T10:38:43.916Z,74.20
2018-09-21T10:41:12.400Z,74.20
2018-09-21T10:43:40.918Z,74.50
2018-09-21T10:46:09.382Z,74.60
2018-09-21T10:48:37.870Z,74.60
2018-09-21T10:51:06.501Z,74.50
2018-09-21T10:53:34.981Z,74.60
2018-09-21T10:56:03.485Z,74.80
2018-09-21T10:58:32.101Z,74.90
2018-09-21T11:01:00.636Z,75.00
2018-09-21T11:03:29.197Z,75.00
2018-09-21T11:05:57.783Z,74.90
2018-09-21T11:08:26.451Z,74.90
2018-09-21T11:10:54.947Z,75.00
2018-09-21T11:13:23.497Z,75.70
2018-09-21T11:15:51.988Z,75.00
2018-09-21T11:18:20.493Z,75.00
2018-09-21T11:20:49.084Z,75.00
2018-09-21T11:23:17.677Z,75.00
2018-09-21T11:25:46.197Z,75.00
2018-09-21T11:28:14.744Z,75.00
2018-09-21T11:30:43.361Z,75.00
2018-09-21T11:33:11.861Z,75.10
2018-09-21T11:35:40.322Z,75.20
2018-09-21T11:38:08.857Z,75.70
2018-09-21T11:40:37.587Z,75.80
2018-09-21T11:43:06.039Z,75.90
2018-09-21T11:45:34.824Z,75.80
2018-09-21T11:48:03.362Z,75.90
2018-09-21T11:50:31.897Z,75.80
2018-09-21T11:53:00.407Z,75.70
2018-09-21T11:55:29.023Z,75.60
2018-09-21T11:57:57.647Z,75.60
2018-09-21T12:00:27.510Z,75.50
2018-09-21T12:02:55.995Z,75.30
2018-09-21T12:05:24.627Z,75.00
2018-09-21T12:07:53.102Z,74.90
2018-09-21T12:10:21.713Z,74.90
2018-09-21T12:12:50.278Z,75.00
2018-09-21T12:15:18.763Z,74.90
2018-09-21T12:17:47.340Z,74.70
2018-09-21T12:20:15.877Z,74.50
2018-09-21T12:22:44.630Z,74.60
2018-09-21T12:25:13.070Z,74.40
2018-09-21T12:27:46.784Z,74.50
2018-09-21T12:30:15.352Z,74.60
2018-09-21T12:32:43.875Z,74.70
2018-09-21T12:35:12.460Z,75.00
2018-09-21T12:37:41.126Z,74.80
2018-09-21T12:40:09.696Z,75.10
2018-09-21T12:42:38.652Z,75.10
2018-09-21T12:45:07.096Z,75.00
2018-09-21T12:47:35.584Z,75.20
2018-09-21T12:50:07.033Z,75.40
2018-09-21T12:52:35.522Z,75.60
2018-09-21T12:55:04.047Z,75.60
2018-09-21T12:57:32.570Z,75.80
2018-09-21T13:00:01.165Z,76.50
2018-09-21T13:02:30.035Z,76.00
2018-09-21T13:04:58.507Z,75.80
2018-09-21T13:07:27.761Z,75.90
2018-09-21T13:09:56.301Z,75.80
2018-09-21T13:12:24.814Z,75.70
2018-09-21T13:14:53.233Z,75.80
2018-09-21T13:17:25.266Z,76.00
2018-09-21T13:19:53.911Z,76.10
2018-09-21T13:22:22.386Z,75.40
2018-09-21T13:24:50.955Z,75.50
2018-09-21T13:27:19.447Z,75.70
2018-09-21T13:29:47.957Z,75.80
2018-09-21T13:32:16.457Z,76.00
2018-09-21T13:34:44.923Z,75.70
2018-09-21T13:37:13.481Z,75.20
2018-09-21T13:39:41.917Z,74.90
2018-09-21T13:42:10.421Z,75.20
2018-09-21T13:44:39.029Z,75.40
2018-09-21T13:47:07.526Z,75.30
2018-09-21T13:49:36.062Z,75.30
2018-09-21T13:52:04.895Z,75.30
2018-09-21T13:54:33.399Z,75.00
2018-09-21T13:57:02.230Z,74.70
2018-09-21T13:59:30.964Z,74.70
2018-09-21T14:01:59.689Z,74.70
2018-09-21T14:04:28.227Z,74.60
2018-09-21T14:06:56.714Z,74.30
2018-09-21T14:09:25.294Z,74.80
2018-09-21T14:11:53.799Z,74.30
2018-09-21T14:14:22.573Z,74.10
2018-09-21T14:16:51.078Z,74.20
2018-09-21T14:19:19.453Z,74.40
2018-09-21T14:21:48.119Z,74.40
2018-09-21T14:24:16.690Z,73.80
2018-09-21T14:26:45.107Z,74.20
2018-09-21T14:29:13.493Z,74.00
2018-09-21T14:31:42.022Z,74.40
2018-09-21T14:34:10.948Z,74.20
2018-09-21T14:36:39.324Z,74.00
2018-09-21T14:39:09.645Z,73.20
2018-09-21T14:41:38.170Z,73.70
2018-09-21T14:44:06.972Z,73.40
2018-09-21T14:46:35.690Z,72.10
2018-09-21T14:49:04.185Z,69.80
2018-09-21T14:51:36.259Z,70.00
2018-09-21T14:54:04.696Z,70.10
2018-09-21T14:56:33.171Z,69.60
2018-09-21T14:59:07.629Z,69.30
2018-09-21T15:01:36.185Z,68.50
2018-09-21T15:04:04.679Z,69.00
2018-09-21T15:06:33.179Z,67.80
2018-09-21T15:09:01.787Z,67.30
2018-09-21T15:11:30.292Z,68.40
2018-09-21T15:13:58.649Z,67.60
2018-09-21T15:16:27.061Z,68.40
2018-09-21T15:18:55.500Z,68.40
2018-09-21T15:21:24.222Z,68.80
2018-09-21T15:23:52.635Z,68.30
2018-09-21T15:26:21.029Z,68.60
2018-09-21T15:28:49.500Z,68.00
2018-09-21T15:31:17.908Z,68.10
2018-09-21T15:33:46.285Z,68.10
2018-09-21T15:36:15.015Z,68.40
2018-09-21T15:38:43.692Z,67.20
2018-09-21T15:41:12.299Z,66.60
2018-09-21T15:43:40.878Z,67.00
2018-09-21T15:46:09.294Z,67.40
2018-09-21T15:48:37.670Z,66.80
2018-09-21T15:51:06.589Z,66.80
2018-09-21T15:53:35.099Z,66.60
2018-09-21T15:56:03.760Z,66.90
2018-09-21T15:58:32.297Z,66.70
2018-09-21T16:01:00.742Z,66.50
2018-09-21T16:03:30.658Z,66.80
2018-09-21T16:05:59.169Z,66.90
2018-09-21T16:08:27.599Z,67.00
2018-09-21T16:10:56.474Z,66.20
2018-09-21T16:13:24.949Z,66.40
2018-09-21T16:15:53.451Z,65.50
2018-09-21T16:18:21.983Z,66.00
2018-09-21T16:20:50.519Z,65.90
2018-09-21T16:23:18.934Z,65.30
2018-09-21T16:25:47.400Z,66.20
2018-09-21T16:28:15.867Z,65.90
2018-09-21T16:30:44.383Z,65.70
2018-09-21T16:33:12.939Z,65.40
2018-09-21T16:35:41.411Z,65.80
2018-09-21T16:38:09.918Z,65.80
2018-09-21T16:40:38.369Z,65.80
2018-09-21T16:43:06.921Z,65.50
2018-09-21T16:45:35.364Z,65.60
2018-09-21T16:48:03.872Z,65.70
2018-09-21T16:50:33.148Z,65.70
2018-09-21T16:53:01.628Z,65.10
2018-09-21T16:55:30.188Z,65.10
2018-09-21T16:57:58.754Z,65.20
2018-09-21T17:00:27.181Z,65.70
2018-09-21T17:02:55.607Z,65.70
2018-09-21T17:05:24.174Z,65.60
2018-09-21T17:07:52.711Z,65.80
2018-09-21T17:10:21.243Z,65.50
2018-09-21T17:12:49.623Z,65.30
2018-09-21T17:15:18.256Z,65.60
2018-09-21T17:17:46.686Z,65.70
2018-09-21T17:20:15.412Z,65.70
2018-09-21T17:22:43.922Z,65.80
2018-09-21T17:25:13.020Z,65.80
2018-09-21T17:27:41.554Z,65.90
2018-09-21T17:30:10.230Z,66.40
2018-09-21T17:32:38.747Z,65.90
2018-09-21T17:35:07.491Z,66.20
2018-09-21T17:37:35.942Z,65.90
2018-09-21T17:40:04.528Z,66.10
2018-09-21T17:42:33.083Z,66.30
2018-09-21T17:45:05.270Z,66.40
2018-09-21T17:47:33.810Z,66.50
2018-09-21T17:50:02.360Z,66.60
2018-09-21T17:52:31.121Z,66.70
2018-09-21T17:54:59.662Z,66.70
2018-09-21T17:57:28.200Z,66.80
2018-09-21T17:59:56.690Z,67.00
2018-09-21T18:02:25.267Z,66.90
2018-09-21T18:04:53.951Z,66.90
2018-09-21T18:07:22.656Z,66.60
2018-09-21T18:09:52.719Z,66.60
2018-09-21T18:12:21.651Z,66.60
2018-09-21T18:14:50.593Z,66.50
2018-09-21T18:17:19.536Z,66.40
2018-09-21T18:19:53.245Z,66.40
2018-09-21T18:22:21.782Z,66.00
2018-09-21T18:24:50.374Z,66.20
2018-09-21T18:27:18.884Z,65.60
2018-09-21T18:29:47.407Z,65.90
2018-09-21T18:32:16.012Z,66.00
2018-09-21T18:34:44.539Z,66.00
2018-09-21T18:37:13.178Z,65.90
2018-09-21T18:39:42.032Z,65.90
2018-09-21T18:42:10.835Z,66.00
2018-09-21T18:44:39.971Z,66.00
2018-09-21T18:47:08.449Z,66.00
2018-09-21T18:49:36.895Z,65.70
2018-09-21T18:52:05.513Z,65.50
2018-09-21T18:54:34.285Z,65.60
2018-09-21T18:57:02.831Z,65.70
2018-09-21T18:59:31.361Z,65.70
2018-09-21T19:01:59.963Z,65.20
2018-09-21T19:04:28.557Z,65.60
2018-09-21T19:06:57.150Z,65.50
2018-09-21T19:09:25.773Z,65.50
2018-09-21T19:11:56.207Z,65.70
2018-09-21T19:14:24.818Z,65.70
2018-09-21T19:16:53.371Z,65.80
2018-09-21T19:19:21.971Z,65.80
2018-09-21T19:21:50.611Z,65.70
2018-09-21T19:24:38.086Z,65.80
2018-09-21T19:27:06.631Z,66.00
2018-09-21T19:29:39.041Z,65.90
2018-09-21T19:32:07.751Z,65.80
2018-09-21T19:34:36.259Z,65.70
2018-09-21T19:37:04.778Z,65.70
2018-09-21T19:39:33.521Z,65.70
2018-09-21T19:42:02.075Z,65.90
2018-09-21T19:44:30.736Z,65.30
2018-09-21T19:46:59.977Z,65.20
2018-09-21T19:49:28.533Z,65.00
2018-09-21T19:52:03.391Z,65.20
2018-09-21T19:54:31.918Z,65.10
2018-09-21T19:57:00.956Z,65.00
2018-09-21T19:59:29.530Z,64.90
2018-09-21T20:01:58.055Z,64.90
2018-09-21T20:04:26.702Z,64.70
2018-09-21T20:06:55.649Z,64.70
2018-09-21T20:09:24.122Z,64.60
2018-09-21T20:11:52.837Z,64.70
2018-09-21T20:14:21.427Z,64.60
2018-09-21T20:16:50.137Z,64.70
2018-09-21T20:19:18.615Z,64.70
2018-09-21T20:21:59.861Z,64.70
2018-09-21T20:24:28.390Z,65.30
2018-09-21T20:26:58.677Z,64.60
2018-09-21T20:29:27.269Z,64.60
2018-09-21T20:32:01.084Z,64.60
2018-09-21T20:34:29.614Z,64.40
2018-09-21T20:36:59.378Z,64.60
2018-09-21T20:39:27.771Z,64.50
2018-09-21T20:41:56.436Z,64.50
2018-09-21T20:44:25.014Z,64.70
2018-09-21T20:46:53.521Z,64.60
2018-09-21T20:49:22.184Z,64.70
2018-09-21T20:51:50.784Z,64.70
2018-09-21T20:54:19.283Z,64.70
2018-09-21T20:56:47.952Z,64.70
2018-09-21T20:59:33.798Z,64.70
2018-09-21T21:02:02.378Z,64.40
2018-09-21T21:04:32.894Z,64.60
2018-09-21T21:07:11.530Z,64.70
2018-09-21T21:09:40.165Z,64.60
2018-09-21T21:12:08.744Z,64.70
2018-09-21T21:14:37.215Z,64.60
2018-09-21T21:17:05.856Z,64.80
2018-09-21T21:19:34.765Z,64.90
2018-09-21T21:22:03.255Z,65.00
2018-09-21T21:24:31.983Z,65.00
2018-09-21T21:27:00.535Z,64.90
2018-09-21T21:29:29.094Z,65.00
2018-09-21T21:31:57.626Z,65.00
2018-09-21T21:34:26.138Z,65.00
2018-09-21T21:36:56.298Z,65.10
2018-09-21T21:39:24.955Z,65.00
2018-09-21T21:41:53.579Z,65.10
2018-09-21T21:44:22.152Z,65.20
2018-09-21T21:46:50.726Z,65.30
2018-09-21T21:49:19.223Z,64.90
2018-09-21T21:51:47.742Z,65.30
2018-09-21T21:54:16.279Z,65.30
2018-09-21T21:56:44.803Z,65.30
2018-09-21T21:59:13.424Z,65.30
2018-09-21T22:01:47.121Z,65.30
2018-09-21T22:04:16.870Z,65.40
2018-09-21T22:06:45.419Z,65.40
2018-09-21T22:09:13.892Z,65.50
2018-09-21T22:11:47.637Z,65.50
2018-09-21T22:14:16.197Z,65.50
2018-09-21T22:16:44.716Z,65.60
2018-09-21T22:19:13.295Z,65.60
2018-09-21T22:21:41.796Z,65.70
2018-09-21T22:24:10.395Z,65.70
2018-09-21T22:26:39.384Z,65.80
2018-09-21T22:29:07.871Z,65.90
2018-09-21T22:31:36.437Z,65.70
2018-09-21T22:34:04.978Z,65.80
2018-09-21T22:36:33.519Z,65.90
2018-09-21T22:39:02.228Z,65.90
2018-09-21T22:41:31.483Z,66.00
2018-09-21T22:44:00.082Z,66.00
2018-09-21T22:46:28.712Z,66.10
2018-09-21T22:49:10.853Z,66.10
2018-09-21T22:51:39.478Z,66.10
2018-09-21T22:54:08.007Z,66.30
2018-09-21T22:56:36.479Z,66.20
2018-09-21T22:59:05.090Z,67.10
2018-09-21T23:01:33.681Z,66.30
2018-09-21T23:04:03.286Z,66.50
2018-09-21T23:06:33.605Z,66.50
2018-09-21T23:09:04.588Z,66.50
2018-09-21T23:11:33.237Z,66.60
2018-09-21T23:14:01.949Z,66.70
2018-09-21T23:16:30.504Z,66.80
2018-09-21T23:18:59.472Z,66.60
2018-09-21T23:21:27.900Z,66.70
2018-09-21T23:23:56.392Z,66.80
2018-09-21T23:26:25.036Z,66.80
2018-09-21T23:28:54.587Z,66.80
2018-09-21T23:31:23.080Z,66.90
2018-09-21T23:33:51.770Z,66.90
2018-09-21T23:36:20.761Z,67.00
2018-09-21T23:38:51.739Z,67.00
2018-09-21T23:41:21.000Z,67.20
2018-09-21T23:43:49.713Z,67.10
2018-09-21T23:46:18.287Z,67.20
2018-09-21T23:48:46.924Z,67.20
2018-09-21T23:51:16.552Z,67.20
2018-09-21T23:53:45.111Z,67.30
2018-09-21T23:56:16.299Z,67.20
2018-09-21T23:58:44.849Z,67.20
